sensor_id;sensor_type;location;lat;lon;timestamp;temperature;humidity
3940;DHT22;1984;48.312;9.244;2023-03-01T00:00:52;-3.00;99.90
3940;DHT22;1984;48.312;9.244;2023-03-01T00:03:18;-3.00;99.90
3940;DHT22;1984;48.312;9.244;2023-03-01T00:05:46;-3.00;99.90
3940;DHT22;1984;48.312;9.244;2023-03-01T00:08:12;-3.00;99.90
3940;DHT22;1984;48.312;9.244;2023-03-01T00:10:38;-3.00;99.90
3940;DHT22;1984;48.312;9.244;2023-03-01T00:13:03;-3.00;99.90
3940;DHT22;1984;48.312;9.244;2023-03-01T00:15:31;-2.90;99.90
3940;DHT22;1984;48.312;9.244;2023-03-01T00:17:56;-2.90;99.90
3940;DHT22;1984;48.312;9.244;2023-03-01T00:20:22;-2.90;99.90
3940;DHT22;1984;48.312;9.244;2023-03-01T00:22:48;-2.90;99.90
3940;DHT22;1984;48.312;9.244;2023-03-01T00:25:13;-2.90;99.90
3940;DHT22;1984;48.312;9.244;2023-03-01T00:27:39;-2.80;99.90
3940;DHT22;1984;48.312;9.244;2023-03-01T00:30:05;-2.80;99.90
3940;DHT22;1984;48.312;9.244;2023-03-01T00:32:30;-2.80;99.90
3940;DHT22;1984;48.312;9.244;2023-03-01T00:34:56;-2.80;99.90
3940;DHT22;1984;48.312;9.244;2023-03-01T00:37:22;-2.70;99.90
3940;DHT22;1984;48.312;9.244;2023-03-01T00:39:49;-2.60;99.90
3940;DHT22;1984;48.312;9.244;2023-03-01T00:42:15;-2.60;99.90
3940;DHT22;1984;48.312;9.244;2023-03-01T00:44:40;-2.50;99.90
3940;DHT22;1984;48.312;9.244;2023-03-01T00:47:06;-2.50;99.90
3940;DHT22;1984;48.312;9.244;2023-03-01T00:49:31;-2.50;99.90
3940;DHT22;1984;48.312;9.244;2023-03-01T00:51:57;-2.50;99.90
3940;DHT22;1984;48.312;9.244;2023-03-01T00:54:22;-2.50;99.90
3940;DHT22;1984;48.312;9.244;2023-03-01T00:56:48;-2.50;99.90
3940;DHT22;1984;48.312;9.244;2023-03-01T00:59:14;-2.40;99.90
3940;DHT22;1984;48.312;9.244;2023-03-01T01:01:39;-2.40;99.90
3940;DHT22;1984;48.312;9.244;2023-03-01T01:04:08;-2.30;99.90
3940;DHT22;1984;48.312;9.244;2023-03-01T01:06:39;-2.30;99.90
3940;DHT22;1984;48.312;9.244;2023-03-01T01:09:06;-2.30;99.90
3940;DHT22;1984;48.312;9.244;2023-03-01T01:11:33;-2.20;99.90
3940;DHT22;1984;48.312;9.244;2023-03-01T01:14:00;-2.20;99.90
3940;DHT22;1984;48.312;9.244;2023-03-01T01:16:26;-2.10;99.90
3940;DHT22;1984;48.312;9.244;2023-03-01T01:18:52;-2.10;99.90
3940;DHT22;1984;48.312;9.244;2023-03-01T01:21:20;-2.10;99.90
3940;DHT22;1984;48.312;9.244;2023-03-01T01:23:47;-2.00;99.90
3940;DHT22;1984;48.312;9.244;2023-03-01T01:26:19;-2.00;99.90
3940;DHT22;1984;48.312;9.244;2023-03-01T01:28:45;-2.00;99.90
3940;DHT22;1984;48.312;9.244;2023-03-01T01:31:11;-1.90;99.90
3940;DHT22;1984;48.312;9.244;2023-03-01T01:33:37;-1.90;99.90
3940;DHT22;1984;48.312;9.244;2023-03-01T01:36:05;-1.90;99.90
3940;DHT22;1984;48.312;9.244;2023-03-01T01:38:30;-1.90;99.90
3940;DHT22;1984;48.312;9.244;2023-03-01T01:40:56;-1.90;99.90
3940;DHT22;1984;48.312;9.244;2023-03-01T01:43:31;-1.90;99.90
3940;DHT22;1984;48.312;9.244;2023-03-01T01:46:02;-1.80;99.90
3940;DHT22;1984;48.312;9.244;2023-03-01T01:48:37;-1.80;99.90
3940;DHT22;1984;48.312;9.244;2023-03-01T01:51:07;-1.80;99.90
3940;DHT22;1984;48.312;9.244;2023-03-01T01:53:34;-1.80;99.90
3940;DHT22;1984;48.312;9.244;2023-03-01T01:56:01;-1.70;99.90
3940;DHT22;1984;48.312;9.244;2023-03-01T01:58:29;-1.60;99.90
3940;DHT22;1984;48.312;9.244;2023-03-01T02:00:55;-1.60;99.90
3940;DHT22;1984;48.312;9.244;2023-03-01T02:03:27;-1.60;99.90
3940;DHT22;1984;48.312;9.244;2023-03-01T02:06:04;-1.50;99.90
3940;DHT22;1984;48.312;9.244;2023-03-01T02:08:34;-1.50;99.90
3940;DHT22;1984;48.312;9.244;2023-03-01T02:11:01;-1.50;99.90
3940;DHT22;1984;48.312;9.244;2023-03-01T02:13:30;-1.40;99.90
3940;DHT22;1984;48.312;9.244;2023-03-01T02:15:56;-1.40;99.90
3940;DHT22;1984;48.312;9.244;2023-03-01T02:18:23;-1.40;99.90
3940;DHT22;1984;48.312;9.244;2023-03-01T02:23:30;-1.30;99.90
3940;DHT22;1984;48.312;9.244;2023-03-01T02:28:50;-1.30;99.90
3940;DHT22;1984;48.312;9.244;2023-03-01T02:31:18;-1.30;99.90
3940;DHT22;1984;48.312;9.244;2023-03-01T02:34:03;-1.30;99.90
3940;DHT22;1984;48.312;9.244;2023-03-01T02:36:36;-1.20;99.90
3940;DHT22;1984;48.312;9.244;2023-03-01T02:41:32;-1.20;99.90
3940;DHT22;1984;48.312;9.244;2023-03-01T02:43:59;-1.20;99.90
3940;DHT22;1984;48.312;9.244;2023-03-01T02:46:25;-1.20;99.90
3940;DHT22;1984;48.312;9.244;2023-03-01T02:48:53;-1.10;99.90
3940;DHT22;1984;48.312;9.244;2023-03-01T02:51:45;-1.10;99.90
3940;DHT22;1984;48.312;9.244;2023-03-01T02:54:29;-1.20;99.90
3940;DHT22;1984;48.312;9.244;2023-03-01T02:56:59;-1.20;99.90
3940;DHT22;1984;48.312;9.244;2023-03-01T02:59:29;-1.10;99.90
3940;DHT22;1984;48.312;9.244;2023-03-01T03:01:56;-1.10;99.90
3940;DHT22;1984;48.312;9.244;2023-03-01T03:04:21;-1.10;99.90
3940;DHT22;1984;48.312;9.244;2023-03-01T03:06:49;-1.10;99.90
3940;DHT22;1984;48.312;9.244;2023-03-01T03:09:16;-1.10;99.90
3940;DHT22;1984;48.312;9.244;2023-03-01T03:11:42;-1.10;99.90
3940;DHT22;1984;48.312;9.244;2023-03-01T03:14:13;-1.10;99.90
3940;DHT22;1984;48.312;9.244;2023-03-01T03:16:44;-1.00;99.90
3940;DHT22;1984;48.312;9.244;2023-03-01T03:19:10;-1.00;99.90
3940;DHT22;1984;48.312;9.244;2023-03-01T03:21:36;-1.00;99.90
3940;DHT22;1984;48.312;9.244;2023-03-01T03:24:02;-1.00;99.90
3940;DHT22;1984;48.312;9.244;2023-03-01T03:26:28;-0.90;99.90
3940;DHT22;1984;48.312;9.244;2023-03-01T03:28:54;-0.90;99.90
3940;DHT22;1984;48.312;9.244;2023-03-01T03:31:19;-0.90;99.90
3940;DHT22;1984;48.312;9.244;2023-03-01T03:33:45;-0.90;99.90
3940;DHT22;1984;48.312;9.244;2023-03-01T03:36:16;-0.90;99.90
3940;DHT22;1984;48.312;9.244;2023-03-01T03:38:43;-0.90;99.90
3940;DHT22;1984;48.312;9.244;2023-03-01T03:41:09;-0.90;99.90
3940;DHT22;1984;48.312;9.244;2023-03-01T03:43:36;-0.90;99.90
3940;DHT22;1984;48.312;9.244;2023-03-01T03:46:03;-0.80;99.90
3940;DHT22;1984;48.312;9.244;2023-03-01T03:48:37;-0.90;99.90
3940;DHT22;1984;48.312;9.244;2023-03-01T03:51:03;-0.80;99.90
3940;DHT22;1984;48.312;9.244;2023-03-01T03:53:31;-0.80;99.90
3940;DHT22;1984;48.312;9.244;2023-03-01T03:55:57;-0.80;99.90
3940;DHT22;1984;48.312;9.244;2023-03-01T03:58:24;-0.70;99.90
3940;DHT22;1984;48.312;9.244;2023-03-01T04:00:52;-0.70;99.90
3940;DHT22;1984;48.312;9.244;2023-03-01T04:03:19;-0.70;99.90
3940;DHT22;1984;48.312;9.244;2023-03-01T04:05:45;-0.70;99.90
3940;DHT22;1984;48.312;9.244;2023-03-01T04:08:11;-0.70;99.90
3940;DHT22;1984;48.312;9.244;2023-03-01T04:10:40;-0.80;99.90
3940;DHT22;1984;48.312;9.244;2023-03-01T04:13:07;-0.70;99.90
3940;DHT22;1984;48.312;9.244;2023-03-01T04:15:34;-0.70;99.90
3940;DHT22;1984;48.312;9.244;2023-03-01T04:18:00;-0.70;99.90
3940;DHT22;1984;48.312;9.244;2023-03-01T04:20:28;-0.70;99.90
3940;DHT22;1984;48.312;9.244;2023-03-01T04:25:44;-0.70;99.90
3940;DHT22;1984;48.312;9.244;2023-03-01T04:28:10;-0.60;99.90
3940;DHT22;1984;48.312;9.244;2023-03-01T04:30:37;-0.60;99.90
3940;DHT22;1984;48.312;9.244;2023-03-01T04:33:08;-0.60;99.90
3940;DHT22;1984;48.312;9.244;2023-03-01T04:35:34;-0.50;99.90
3940;DHT22;1984;48.312;9.244;2023-03-01T04:38:00;-0.60;99.90
3940;DHT22;1984;48.312;9.244;2023-03-01T04:40:26;-0.50;99.90
3940;DHT22;1984;48.312;9.244;2023-03-01T04:42:51;-0.60;99.90
3940;DHT22;1984;48.312;9.244;2023-03-01T04:45:17;-0.60;99.90
3940;DHT22;1984;48.312;9.244;2023-03-01T04:47:44;-0.60;99.90
3940;DHT22;1984;48.312;9.244;2023-03-01T04:50:12;-0.60;99.90
3940;DHT22;1984;48.312;9.244;2023-03-01T04:52:38;-0.60;99.90
3940;DHT22;1984;48.312;9.244;2023-03-01T04:55:05;-0.70;99.90
3940;DHT22;1984;48.312;9.244;2023-03-01T04:57:31;-0.70;99.90
3940;DHT22;1984;48.312;9.244;2023-03-01T04:59:57;-0.70;99.90
3940;DHT22;1984;48.312;9.244;2023-03-01T05:02:22;-0.70;99.90
3940;DHT22;1984;48.312;9.244;2023-03-01T05:04:48;-0.70;99.90
3940;DHT22;1984;48.312;9.244;2023-03-01T05:07:14;-0.70;99.90
3940;DHT22;1984;48.312;9.244;2023-03-01T05:09:47;-0.60;99.90
3940;DHT22;1984;48.312;9.244;2023-03-01T05:12:14;-0.60;99.90
3940;DHT22;1984;48.312;9.244;2023-03-01T05:14:40;-0.60;99.90
3940;DHT22;1984;48.312;9.244;2023-03-01T05:17:05;-0.60;99.90
3940;DHT22;1984;48.312;9.244;2023-03-01T05:19:31;-0.60;99.90
3940;DHT22;1984;48.312;9.244;2023-03-01T05:21:58;-0.60;99.90
3940;DHT22;1984;48.312;9.244;2023-03-01T05:24:27;-0.60;99.90
3940;DHT22;1984;48.312;9.244;2023-03-01T05:26:53;-0.60;99.90
3940;DHT22;1984;48.312;9.244;2023-03-01T05:29:23;-0.60;99.90
3940;DHT22;1984;48.312;9.244;2023-03-01T05:31:57;-0.60;99.90
3940;DHT22;1984;48.312;9.244;2023-03-01T05:34:34;-0.60;99.90
3940;DHT22;1984;48.312;9.244;2023-03-01T05:37:01;-0.60;99.90
3940;DHT22;1984;48.312;9.244;2023-03-01T05:39:27;-0.50;99.90
3940;DHT22;1984;48.312;9.244;2023-03-01T05:41:55;-0.50;99.90
3940;DHT22;1984;48.312;9.244;2023-03-01T05:44:21;-0.60;99.90
3940;DHT22;1984;48.312;9.244;2023-03-01T05:46:46;-0.60;99.90
3940;DHT22;1984;48.312;9.244;2023-03-01T05:49:13;-0.60;99.90
3940;DHT22;1984;48.312;9.244;2023-03-01T05:51:42;-0.50;99.90
3940;DHT22;1984;48.312;9.244;2023-03-01T05:54:09;-0.60;99.90
3940;DHT22;1984;48.312;9.244;2023-03-01T05:56:35;-0.50;99.90
3940;DHT22;1984;48.312;9.244;2023-03-01T05:59:02;-0.50;99.90
3940;DHT22;1984;48.312;9.244;2023-03-01T06:01:28;-0.60;99.90
3940;DHT22;1984;48.312;9.244;2023-03-01T06:03:54;-0.60;99.90
3940;DHT22;1984;48.312;9.244;2023-03-01T06:06:21;-0.60;99.90
3940;DHT22;1984;48.312;9.244;2023-03-01T06:08:46;-0.60;99.90
3940;DHT22;1984;48.312;9.244;2023-03-01T06:11:12;-0.50;99.90
3940;DHT22;1984;48.312;9.244;2023-03-01T06:13:37;-0.50;99.90
3940;DHT22;1984;48.312;9.244;2023-03-01T06:16:06;-0.40;99.90
3940;DHT22;1984;48.312;9.244;2023-03-01T06:18:32;-0.40;99.90
3940;DHT22;1984;48.312;9.244;2023-03-01T06:20:58;-0.40;99.90
3940;DHT22;1984;48.312;9.244;2023-03-01T06:23:23;-0.40;99.90
3940;DHT22;1984;48.312;9.244;2023-03-01T06:25:49;-0.40;99.90
3940;DHT22;1984;48.312;9.244;2023-03-01T06:28:15;-0.40;99.90
3940;DHT22;1984;48.312;9.244;2023-03-01T06:30:40;-0.40;99.90
3940;DHT22;1984;48.312;9.244;2023-03-01T06:33:06;-0.30;99.90
3940;DHT22;1984;48.312;9.244;2023-03-01T06:35:32;-0.30;99.90
3940;DHT22;1984;48.312;9.244;2023-03-01T06:37:59;-0.40;99.90
3940;DHT22;1984;48.312;9.244;2023-03-01T06:40:25;-0.30;99.90
3940;DHT22;1984;48.312;9.244;2023-03-01T06:42:51;-0.40;99.90
3940;DHT22;1984;48.312;9.244;2023-03-01T06:45:20;-0.40;99.90
3940;DHT22;1984;48.312;9.244;2023-03-01T06:47:46;-0.50;99.90
3940;DHT22;1984;48.312;9.244;2023-03-01T06:50:13;-0.60;99.90
3940;DHT22;1984;48.312;9.244;2023-03-01T06:52:39;-0.60;99.90
3940;DHT22;1984;48.312;9.244;2023-03-01T06:55:05;-0.60;99.90
3940;DHT22;1984;48.312;9.244;2023-03-01T06:57:32;-0.60;99.90
3940;DHT22;1984;48.312;9.244;2023-03-01T06:59:58;-0.50;99.90
3940;DHT22;1984;48.312;9.244;2023-03-01T07:02:24;-0.60;99.90
3940;DHT22;1984;48.312;9.244;2023-03-01T07:04:50;-0.60;99.90
3940;DHT22;1984;48.312;9.244;2023-03-01T07:07:16;-0.60;99.90
3940;DHT22;1984;48.312;9.244;2023-03-01T07:09:44;-0.60;99.90
3940;DHT22;1984;48.312;9.244;2023-03-01T07:12:09;-0.60;99.90
3940;DHT22;1984;48.312;9.244;2023-03-01T07:14:35;-0.40;99.90
3940;DHT22;1984;48.312;9.244;2023-03-01T07:17:00;-0.30;99.90
3940;DHT22;1984;48.312;9.244;2023-03-01T07:19:26;-0.10;99.90
3940;DHT22;1984;48.312;9.244;2023-03-01T07:21:51;0.20;99.90
3940;DHT22;1984;48.312;9.244;2023-03-01T07:24:17;0.10;99.90
3940;DHT22;1984;48.312;9.244;2023-03-01T07:26:42;0.10;99.90
3940;DHT22;1984;48.312;9.244;2023-03-01T07:29:10;0.00;99.90
3940;DHT22;1984;48.312;9.244;2023-03-01T07:31:36;-0.10;99.90
3940;DHT22;1984;48.312;9.244;2023-03-01T07:34:02;-0.10;99.90
3940;DHT22;1984;48.312;9.244;2023-03-01T07:36:28;-0.10;99.90
3940;DHT22;1984;48.312;9.244;2023-03-01T07:38:53;-0.10;99.90
3940;DHT22;1984;48.312;9.244;2023-03-01T07:41:21;-0.20;99.90
3940;DHT22;1984;48.312;9.244;2023-03-01T07:43:46;-0.10;99.90
3940;DHT22;1984;48.312;9.244;2023-03-01T07:46:12;-0.30;99.90
3940;DHT22;1984;48.312;9.244;2023-03-01T07:48:38;-0.30;99.90
3940;DHT22;1984;48.312;9.244;2023-03-01T07:51:05;-0.30;99.90
3940;DHT22;1984;48.312;9.244;2023-03-01T07:53:32;-0.30;99.90
3940;DHT22;1984;48.312;9.244;2023-03-01T07:56:12;-0.30;99.90
3940;DHT22;1984;48.312;9.244;2023-03-01T07:58:40;-0.20;99.90
3940;DHT22;1984;48.312;9.244;2023-03-01T08:01:08;-0.30;99.90
3940;DHT22;1984;48.312;9.244;2023-03-01T08:03:35;-0.30;99.90
3940;DHT22;1984;48.312;9.244;2023-03-01T08:06:01;-0.30;99.90
3940;DHT22;1984;48.312;9.244;2023-03-01T08:08:28;-0.20;99.90
3940;DHT22;1984;48.312;9.244;2023-03-01T08:10:56;-0.20;99.90
3940;DHT22;1984;48.312;9.244;2023-03-01T08:13:22;-0.20;99.90
3940;DHT22;1984;48.312;9.244;2023-03-01T08:15:51;-0.20;99.90
3940;DHT22;1984;48.312;9.244;2023-03-01T08:18:18;-0.20;99.90
3940;DHT22;1984;48.312;9.244;2023-03-01T08:20:44;-0.10;99.90
3940;DHT22;1984;48.312;9.244;2023-03-01T08:23:10;-0.10;99.90
3940;DHT22;1984;48.312;9.244;2023-03-01T08:25:35;0.00;99.90
3940;DHT22;1984;48.312;9.244;2023-03-01T08:28:01;0.00;99.90
3940;DHT22;1984;48.312;9.244;2023-03-01T08:30:26;0.00;99.90
3940;DHT22;1984;48.312;9.244;2023-03-01T08:32:52;0.10;99.90
3940;DHT22;1984;48.312;9.244;2023-03-01T08:35:18;0.10;99.90
3940;DHT22;1984;48.312;9.244;2023-03-01T08:37:44;0.00;99.90
3940;DHT22;1984;48.312;9.244;2023-03-01T08:40:10;0.00;99.90
3940;DHT22;1984;48.312;9.244;2023-03-01T08:42:36;-0.10;99.90
3940;DHT22;1984;48.312;9.244;2023-03-01T08:45:03;-0.10;99.90
3940;DHT22;1984;48.312;9.244;2023-03-01T08:47:29;-0.10;99.90
3940;DHT22;1984;48.312;9.244;2023-03-01T08:49:54;0.00;99.90
3940;DHT22;1984;48.312;9.244;2023-03-01T08:52:20;0.10;99.90
3940;DHT22;1984;48.312;9.244;2023-03-01T08:54:49;0.20;99.90
3940;DHT22;1984;48.312;9.244;2023-03-01T08:57:15;0.30;99.90
3940;DHT22;1984;48.312;9.244;2023-03-01T08:59:40;0.40;99.90
3940;DHT22;1984;48.312;9.244;2023-03-01T09:02:12;0.40;99.90
3940;DHT22;1984;48.312;9.244;2023-03-01T09:04:38;0.50;99.90
3940;DHT22;1984;48.312;9.244;2023-03-01T09:07:04;0.60;99.90
3940;DHT22;1984;48.312;9.244;2023-03-01T09:09:30;0.50;99.90
3940;DHT22;1984;48.312;9.244;2023-03-01T09:11:55;0.40;99.90
3940;DHT22;1984;48.312;9.244;2023-03-01T09:14:21;0.50;99.90
3940;DHT22;1984;48.312;9.244;2023-03-01T09:16:46;0.60;99.90
3940;DHT22;1984;48.312;9.244;2023-03-01T09:19:12;0.80;99.90
3940;DHT22;1984;48.312;9.244;2023-03-01T09:21:38;0.90;99.90
3940;DHT22;1984;48.312;9.244;2023-03-01T09:24:04;1.00;99.90
3940;DHT22;1984;48.312;9.244;2023-03-01T09:26:29;1.00;99.90
3940;DHT22;1984;48.312;9.244;2023-03-01T09:28:56;0.80;99.90
3940;DHT22;1984;48.312;9.244;2023-03-01T09:31:23;0.70;99.90
3940;DHT22;1984;48.312;9.244;2023-03-01T09:33:51;0.70;99.90
3940;DHT22;1984;48.312;9.244;2023-03-01T09:36:22;0.50;99.90
3940;DHT22;1984;48.312;9.244;2023-03-01T09:38:49;0.50;99.90
3940;DHT22;1984;48.312;9.244;2023-03-01T09:41:59;0.40;99.90
3940;DHT22;1984;48.312;9.244;2023-03-01T09:46:45;0.40;99.90
3940;DHT22;1984;48.312;9.244;2023-03-01T09:49:29;0.40;99.90
3940;DHT22;1984;48.312;9.244;2023-03-01T09:54:44;0.60;99.90
3940;DHT22;1984;48.312;9.244;2023-03-01T09:57:18;0.70;99.90
3940;DHT22;1984;48.312;9.244;2023-03-01T10:02:43;0.80;99.90
3940;DHT22;1984;48.312;9.244;2023-03-01T10:05:35;0.90;99.90
3940;DHT22;1984;48.312;9.244;2023-03-01T10:10:43;0.90;99.90
3940;DHT22;1984;48.312;9.244;2023-03-01T10:13:21;0.80;99.90
3940;DHT22;1984;48.312;9.244;2023-03-01T10:15:52;0.80;99.90
3940;DHT22;1984;48.312;9.244;2023-03-01T10:18:22;0.70;99.90
3940;DHT22;1984;48.312;9.244;2023-03-01T10:21:00;0.70;99.90
3940;DHT22;1984;48.312;9.244;2023-03-01T10:23:28;0.90;99.90
3940;DHT22;1984;48.312;9.244;2023-03-01T10:26:09;1.30;99.90
3940;DHT22;1984;48.312;9.244;2023-03-01T10:28:47;1.50;99.90
3940;DHT22;1984;48.312;9.244;2023-03-01T10:31:19;1.70;99.90
3940;DHT22;1984;48.312;9.244;2023-03-01T10:33:45;1.60;99.90
3940;DHT22;1984;48.312;9.244;2023-03-01T10:36:13;1.60;99.90
3940;DHT22;1984;48.312;9.244;2023-03-01T10:38:53;1.50;99.90
3940;DHT22;1984;48.312;9.244;2023-03-01T10:41:23;1.50;99.90
3940;DHT22;1984;48.312;9.244;2023-03-01T10:43:55;1.50;99.90
3940;DHT22;1984;48.312;9.244;2023-03-01T10:51:47;1.50;99.90
3940;DHT22;1984;48.312;9.244;2023-03-01T10:54:27;1.70;99.90
3940;DHT22;1984;48.312;9.244;2023-03-01T10:57:04;2.20;99.90
3940;DHT22;1984;48.312;9.244;2023-03-01T10:59:35;2.50;99.90
3940;DHT22;1984;48.312;9.244;2023-03-01T11:02:24;3.00;99.90
3940;DHT22;1984;48.312;9.244;2023-03-01T11:05:03;3.20;99.90
3940;DHT22;1984;48.312;9.244;2023-03-01T11:07:53;3.30;99.90
3940;DHT22;1984;48.312;9.244;2023-03-01T11:10:28;3.60;99.90
3940;DHT22;1984;48.312;9.244;2023-03-01T11:13:06;3.50;99.90
3940;DHT22;1984;48.312;9.244;2023-03-01T11:15:32;3.40;99.90
3940;DHT22;1984;48.312;9.244;2023-03-01T11:17:57;3.70;99.90
3940;DHT22;1984;48.312;9.244;2023-03-01T11:20:29;4.30;99.90
3940;DHT22;1984;48.312;9.244;2023-03-01T11:23:14;5.10;99.90
3940;DHT22;1984;48.312;9.244;2023-03-01T11:25:48;5.80;99.90
3940;DHT22;1984;48.312;9.244;2023-03-01T11:28:17;6.10;99.90
3940;DHT22;1984;48.312;9.244;2023-03-01T11:30:49;6.40;99.90
3940;DHT22;1984;48.312;9.244;2023-03-01T11:33:24;6.50;99.90
3940;DHT22;1984;48.312;9.244;2023-03-01T11:38:35;5.80;99.90
3940;DHT22;1984;48.312;9.244;2023-03-01T11:41:05;5.50;99.90
3940;DHT22;1984;48.312;9.244;2023-03-01T11:43:58;5.70;99.90
3940;DHT22;1984;48.312;9.244;2023-03-01T11:51:53;5.00;99.90
3940;DHT22;1984;48.312;9.244;2023-03-01T11:54:34;4.40;99.90
3940;DHT22;1984;48.312;9.244;2023-03-01T12:00:11;3.70;99.90
3940;DHT22;1984;48.312;9.244;2023-03-01T12:02:54;3.80;99.90
3940;DHT22;1984;48.312;9.244;2023-03-01T12:08:29;3.90;99.90
3940;DHT22;1984;48.312;9.244;2023-03-01T12:11:03;4.00;99.90
3940;DHT22;1984;48.312;9.244;2023-03-01T12:21:49;4.30;99.90
3940;DHT22;1984;48.312;9.244;2023-03-01T12:24:35;4.20;99.90
3940;DHT22;1984;48.312;9.244;2023-03-01T12:30:01;3.90;99.90
3940;DHT22;1984;48.312;9.244;2023-03-01T12:32:45;3.90;99.90
3940;DHT22;1984;48.312;9.244;2023-03-01T12:35:28;3.90;99.90
3940;DHT22;1984;48.312;9.244;2023-03-01T12:38:33;4.00;99.90
3940;DHT22;1984;48.312;9.244;2023-03-01T12:49:45;4.20;99.90
3940;DHT22;1984;48.312;9.244;2023-03-01T12:52:19;4.30;99.90
3940;DHT22;1984;48.312;9.244;2023-03-01T12:54:49;4.50;99.90
3940;DHT22;1984;48.312;9.244;2023-03-01T12:57:51;4.70;99.90
3940;DHT22;1984;48.312;9.244;2023-03-01T13:00:32;4.90;99.90
3940;DHT22;1984;48.312;9.244;2023-03-01T13:03:13;4.90;99.90
3940;DHT22;1984;48.312;9.244;2023-03-01T13:06:13;4.90;99.90
3940;DHT22;1984;48.312;9.244;2023-03-01T13:11:22;5.00;99.90
3940;DHT22;1984;48.312;9.244;2023-03-01T13:13:48;4.90;99.90
3940;DHT22;1984;48.312;9.244;2023-03-01T13:16:28;4.80;99.90
3940;DHT22;1984;48.312;9.244;2023-03-01T13:19:18;4.90;99.90
3940;DHT22;1984;48.312;9.244;2023-03-01T13:21:46;5.00;99.90
3940;DHT22;1984;48.312;9.244;2023-03-01T13:24:40;5.10;99.90
3940;DHT22;1984;48.312;9.244;2023-03-01T13:29:49;5.10;99.90
3940;DHT22;1984;48.312;9.244;2023-03-01T13:34:51;5.10;99.90
3940;DHT22;1984;48.312;9.244;2023-03-01T13:37:31;5.10;99.90
3940;DHT22;1984;48.312;9.244;2023-03-01T13:40:00;5.20;99.90
3940;DHT22;1984;48.312;9.244;2023-03-01T13:44:58;5.20;99.90
3940;DHT22;1984;48.312;9.244;2023-03-01T13:47:24;5.20;99.90
3940;DHT22;1984;48.312;9.244;2023-03-01T13:50:02;5.30;99.90
3940;DHT22;1984;48.312;9.244;2023-03-01T13:57:41;5.30;99.90
3940;DHT22;1984;48.312;9.244;2023-03-01T14:03:09;5.40;99.90
3940;DHT22;1984;48.312;9.244;2023-03-01T14:05:35;5.50;99.90
3940;DHT22;1984;48.312;9.244;2023-03-01T14:08:14;5.50;99.90
3940;DHT22;1984;48.312;9.244;2023-03-01T14:19:09;5.80;99.90
3940;DHT22;1984;48.312;9.244;2023-03-01T14:21:37;5.70;99.90
3940;DHT22;1984;48.312;9.244;2023-03-01T14:24:03;5.60;99.90
3940;DHT22;1984;48.312;9.244;2023-03-01T14:26:29;5.60;99.90
3940;DHT22;1984;48.312;9.244;2023-03-01T14:28:56;5.50;99.90
3940;DHT22;1984;48.312;9.244;2023-03-01T14:31:32;5.40;99.90
3940;DHT22;1984;48.312;9.244;2023-03-01T14:33:59;5.40;99.90
3940;DHT22;1984;48.312;9.244;2023-03-01T14:36:31;5.50;99.90
3940;DHT22;1984;48.312;9.244;2023-03-01T14:38:57;5.40;99.90
3940;DHT22;1984;48.312;9.244;2023-03-01T14:41:34;5.30;99.90
3940;DHT22;1984;48.312;9.244;2023-03-01T14:44:07;5.30;99.90
3940;DHT22;1984;48.312;9.244;2023-03-01T14:46:40;5.40;99.90
3940;DHT22;1984;48.312;9.244;2023-03-01T14:49:09;5.40;99.90
3940;DHT22;1984;48.312;9.244;2023-03-01T14:51:40;5.40;99.90
3940;DHT22;1984;48.312;9.244;2023-03-01T14:54:27;5.50;99.90
3940;DHT22;1984;48.312;9.244;2023-03-01T14:56:57;5.40;99.90
3940;DHT22;1984;48.312;9.244;2023-03-01T14:59:24;5.10;99.90
3940;DHT22;1984;48.312;9.244;2023-03-01T15:01:51;5.00;99.90
3940;DHT22;1984;48.312;9.244;2023-03-01T15:04:18;5.20;99.90
3940;DHT22;1984;48.312;9.244;2023-03-01T15:06:45;5.40;99.90
3940;DHT22;1984;48.312;9.244;2023-03-01T15:09:15;5.20;99.90
3940;DHT22;1984;48.312;9.244;2023-03-01T15:11:42;5.10;99.90
3940;DHT22;1984;48.312;9.244;2023-03-01T15:14:29;5.00;99.90
3940;DHT22;1984;48.312;9.244;2023-03-01T15:17:03;4.90;99.90
3940;DHT22;1984;48.312;9.244;2023-03-01T15:19:29;4.90;99.90
3940;DHT22;1984;48.312;9.244;2023-03-01T15:21:55;4.90;99.90
3940;DHT22;1984;48.312;9.244;2023-03-01T15:24:24;4.90;99.90
3940;DHT22;1984;48.312;9.244;2023-03-01T15:26:51;4.90;99.90
3940;DHT22;1984;48.312;9.244;2023-03-01T15:29:25;4.90;99.90
3940;DHT22;1984;48.312;9.244;2023-03-01T15:32:03;4.80;99.90
3940;DHT22;1984;48.312;9.244;2023-03-01T15:34:30;4.90;99.90
3940;DHT22;1984;48.312;9.244;2023-03-01T15:36:58;4.90;99.90
3940;DHT22;1984;48.312;9.244;2023-03-01T15:39:42;4.90;99.90
3940;DHT22;1984;48.312;9.244;2023-03-01T15:42:35;4.80;99.90
3940;DHT22;1984;48.312;9.244;2023-03-01T15:47:47;4.70;99.90
3940;DHT22;1984;48.312;9.244;2023-03-01T15:50:34;4.80;99.90
3940;DHT22;1984;48.312;9.244;2023-03-01T15:53:04;4.90;99.90
3940;DHT22;1984;48.312;9.244;2023-03-01T15:55:32;4.90;99.90
3940;DHT22;1984;48.312;9.244;2023-03-01T15:58:16;4.90;99.90
3940;DHT22;1984;48.312;9.244;2023-03-01T16:00:43;4.80;99.90
3940;DHT22;1984;48.312;9.244;2023-03-01T16:03:11;4.80;99.90
3940;DHT22;1984;48.312;9.244;2023-03-01T16:05:37;4.70;99.90
3940;DHT22;1984;48.312;9.244;2023-03-01T16:08:05;4.70;99.90
3940;DHT22;1984;48.312;9.244;2023-03-01T16:10:34;4.70;99.90
3940;DHT22;1984;48.312;9.244;2023-03-01T16:13:00;4.60;99.90
3940;DHT22;1984;48.312;9.244;2023-03-01T16:15:28;4.50;99.90
3940;DHT22;1984;48.312;9.244;2023-03-01T16:17:54;4.50;99.90
3940;DHT22;1984;48.312;9.244;2023-03-01T16:20:20;4.40;99.90
3940;DHT22;1984;48.312;9.244;2023-03-01T16:22:46;4.40;99.90
3940;DHT22;1984;48.312;9.244;2023-03-01T16:25:14;4.30;99.90
3940;DHT22;1984;48.312;9.244;2023-03-01T16:27:45;4.30;99.90
3940;DHT22;1984;48.312;9.244;2023-03-01T16:30:12;4.40;99.90
3940;DHT22;1984;48.312;9.244;2023-03-01T16:32:43;4.30;99.90
3940;DHT22;1984;48.312;9.244;2023-03-01T16:35:11;4.30;99.90
3940;DHT22;1984;48.312;9.244;2023-03-01T16:37:37;4.20;99.90
3940;DHT22;1984;48.312;9.244;2023-03-01T16:40:04;4.10;99.90
3940;DHT22;1984;48.312;9.244;2023-03-01T16:42:34;4.00;99.90
3940;DHT22;1984;48.312;9.244;2023-03-01T16:45:00;3.90;99.90
3940;DHT22;1984;48.312;9.244;2023-03-01T16:47:27;3.90;99.90
3940;DHT22;1984;48.312;9.244;2023-03-01T16:49:53;3.80;99.90
3940;DHT22;1984;48.312;9.244;2023-03-01T16:52:20;3.80;99.90
3940;DHT22;1984;48.312;9.244;2023-03-01T16:54:46;3.80;99.90
3940;DHT22;1984;48.312;9.244;2023-03-01T16:57:11;3.70;99.90
3940;DHT22;1984;48.312;9.244;2023-03-01T16:59:37;3.70;99.90
3940;DHT22;1984;48.312;9.244;2023-03-01T17:02:06;3.60;99.90
3940;DHT22;1984;48.312;9.244;2023-03-01T17:04:35;3.50;99.90
3940;DHT22;1984;48.312;9.244;2023-03-01T17:07:00;3.40;99.90
3940;DHT22;1984;48.312;9.244;2023-03-01T17:09:25;3.30;99.90
3940;DHT22;1984;48.312;9.244;2023-03-01T17:11:51;3.30;99.90
3940;DHT22;1984;48.312;9.244;2023-03-01T17:14:17;3.20;99.90
3940;DHT22;1984;48.312;9.244;2023-03-01T17:16:43;3.20;99.90
3940;DHT22;1984;48.312;9.244;2023-03-01T17:19:09;3.20;99.90
3940;DHT22;1984;48.312;9.244;2023-03-01T17:21:36;3.20;99.90
3940;DHT22;1984;48.312;9.244;2023-03-01T17:24:01;3.20;99.90
3940;DHT22;1984;48.312;9.244;2023-03-01T17:26:27;3.10;99.90
3940;DHT22;1984;48.312;9.244;2023-03-01T17:28:56;3.10;99.90
3940;DHT22;1984;48.312;9.244;2023-03-01T17:31:23;3.10;99.90
3940;DHT22;1984;48.312;9.244;2023-03-01T17:33:49;3.10;99.90
3940;DHT22;1984;48.312;9.244;2023-03-01T17:36:15;3.10;99.90
3940;DHT22;1984;48.312;9.244;2023-03-01T17:38:40;3.10;99.90
3940;DHT22;1984;48.312;9.244;2023-03-01T17:41:06;3.10;99.90
3940;DHT22;1984;48.312;9.244;2023-03-01T17:43:32;3.00;99.90
3940;DHT22;1984;48.312;9.244;2023-03-01T17:45:59;3.00;99.90
3940;DHT22;1984;48.312;9.244;2023-03-01T17:48:25;3.00;99.90
3940;DHT22;1984;48.312;9.244;2023-03-01T17:50:51;3.00;99.90
3940;DHT22;1984;48.312;9.244;2023-03-01T17:53:17;3.00;99.90